Time;durP1;ratioP1;P1;durP2;ratioP2;P2;SDS_P1;SDS_P2;PMS_P1;PMS_P2;Temp;Humidity;BMP_temperature;BMP_pressure;BME280_temperature;BME280_humidity;BME280_pressure;Samples;Min_cycle;Max_cycle;Signal;HPM_P1;HPM_P2
2022/07/20 00:00:21;;;;;;;31.08;19.85;;;;;;;29.02;72.88;100545.50;4970418;28;66525;-33
2022/07/20 00:02:52;;;;;;;28.27;20.05;;;;;;;29.32;73.54;100595.22;4961240;28;69545;-33
2022/07/20 00:05:23;;;;;;;43.63;22.55;;;;;;;29.33;73.34;100596.88;5023963;28;65334;-34
2022/07/20 00:07:55;;;;;;;36.72;24.38;;;;;;;29.37;73.81;100600.81;4950551;28;70334;-34
2022/07/20 00:13:17;;;;;;;35.53;22.58;;;;;;;29.50;73.77;100609.88;4957559;28;70255;-32
2022/07/20 00:15:48;;;;;;;44.22;24.60;;;;;;;29.56;73.54;100609.00;5009434;28;66198;-33
2022/07/20 00:18:22;;;;;;;44.63;22.60;;;;;;;29.62;73.51;100610.84;4958510;28;70156;-32
2022/07/20 00:20:53;;;;;;;36.75;25.58;;;;;;;29.58;73.58;100596.09;4983450;28;64919;-33
2022/07/20 00:23:24;;;;;;;36.25;23.10;;;;;;;29.72;73.79;100607.69;4958488;28;69516;-33
2022/07/20 00:25:55;;;;;;;44.22;23.60;;;;;;;29.74;73.31;100611.00;4957856;28;65237;-32
2022/07/20 00:28:26;;;;;;;34.80;20.97;;;;;;;29.74;70.70;100601.00;4957092;28;69404;-33
2022/07/20 00:30:57;;;;;;;28.83;17.25;;;;;;;29.88;69.67;100617.94;4958848;28;66242;-34
2022/07/20 00:33:28;;;;;;;30.80;17.50;;;;;;;29.44;69.77;100532.38;4958225;28;70001;-34
2022/07/20 00:35:59;;;;;;;33.53;16.10;;;;;;;30.01;69.20;100622.44;4957272;28;66270;-33
2022/07/20 00:38:30;;;;;;;32.63;17.00;;;;;;;30.00;69.56;100615.34;4957666;28;69731;-34
2022/07/20 00:41:02;;;;;;;20.48;14.15;;;;;;;30.14;68.71;100624.19;5017424;28;65887;-35
2022/07/20 00:44:00;;;;;;;14.88;11.90;;;;;;;30.13;69.47;100619.84;5024013;28;70670;-33
2022/07/20 00:46:34;;;;;;;17.20;11.88;;;;;;;29.81;67.94;100553.13;4948219;28;65562;-34
2022/07/20 00:49:07;;;;;;;15.52;11.55;;;;;;;30.32;68.19;100634.28;4959506;28;69504;-35
2022/07/20 00:51:40;;;;;;;19.40;11.73;;;;;;;30.00;67.74;100574.78;4959888;28;66490;-33
2022/07/20 00:54:11;;;;;;;21.38;12.50;;;;;;;30.39;67.54;100635.03;4949599;28;70448;-33
2022/07/20 00:56:42;;;;;;;13.87;10.60;;;;;;;30.41;67.95;100633.75;4959033;28;66201;-33
2022/07/20 00:59:13;;;;;;;12.38;10.45;;;;;;;30.47;67.83;100637.44;4957147;28;71875;-36
2022/07/20 01:01:44;;;;;;;16.90;10.32;;;;;;;30.40;67.75;100620.47;4958730;28;65832;-34
2022/07/20 01:04:16;;;;;;;21.60;10.35;;;;;;;30.55;67.75;100634.44;4959286;28;71943;-34
2022/07/20 01:06:47;;;;;;;11.23;10.15;;;;;;;30.54;68.00;100632.81;4959136;28;66016;-35
2022/07/20 01:09:18;;;;;;;11.20;9.90;;;;;;;30.59;67.75;100641.09;4959823;28;69784;-33
2022/07/20 01:11:49;;;;;;;18.45;9.60;;;;;;;30.63;67.77;100642.28;4957623;28;66019;-34
2022/07/20 01:14:20;;;;;;;13.15;8.90;;;;;;;30.65;67.55;100651.00;4958861;28;70221;-34
2022/07/20 01:16:51;;;;;;;11.23;9.35;;;;;;;30.69;67.29;100652.22;4940079;28;65297;-34
2022/07/20 01:19:22;;;;;;;15.02;9.82;;;;;;;30.71;68.25;100655.53;4955080;28;71031;-33
2022/07/20 01:21:53;;;;;;;9.45;8.38;;;;;;;30.67;67.55;100640.78;4956518;28;65686;-34
2022/07/20 01:24:24;;;;;;;13.93;9.52;;;;;;;30.75;68.09;100650.47;4953784;28;69496;-34
2022/07/20 01:26:55;;;;;;;9.52;8.63;;;;;;;30.80;67.52;100652.56;5024834;28;66209;-35
2022/07/20 01:29:26;;;;;;;16.30;8.77;;;;;;;30.81;67.81;100654.19;5009843;28;69320;-34
2022/07/20 01:31:57;;;;;;;11.13;8.85;;;;;;;30.85;67.03;100661.66;4946504;28;66054;-34
2022/07/20 01:34:28;;;;;;;20.83;8.40;;;;;;;30.82;67.58;100658.59;4957457;28;71282;-33
2022/07/20 01:37:00;;;;;;;20.52;9.57;;;;;;;30.40;67.65;100580.69;4958968;28;65248;-34
2022/07/20 01:39:31;;;;;;;19.58;9.68;;;;;;;30.77;67.48;100650.25;4943545;28;70109;-34
2022/07/20 01:42:02;;;;;;;12.07;8.43;;;;;;;30.82;67.41;100645.03;4949295;28;66674;-35
2022/07/20 01:44:33;;;;;;;17.60;9.43;;;;;;;30.94;67.36;100668.41;4958967;28;71744;-34
2022/07/20 01:47:04;;;;;;;17.70;9.20;;;;;;;30.97;67.98;100669.84;4955215;28;66328;-35
2022/07/20 01:49:35;;;;;;;21.25;9.68;;;;;;;30.99;67.54;100667.75;4961486;28;70178;-36
2022/07/20 01:52:06;;;;;;;17.55;9.40;;;;;;;30.48;67.67;100585.81;4958946;28;67060;-35
2022/07/20 01:54:37;;;;;;;13.48;8.10;;;;;;;30.98;68.16;100666.09;4959503;28;69881;-35
2022/07/20 01:57:08;;;;;;;14.73;8.15;;;;;;;31.04;68.29;100676.03;4958373;28;66521;-35
2022/07/20 01:59:39;;;;;;;13.82;8.25;;;;;;;31.07;68.10;100675.56;4954668;28;70253;-36
2022/07/20 02:02:09;;;;;;;13.85;7.78;;;;;;;31.03;68.14;100666.22;4957330;28;67031;-35
2022/07/20 02:04:41;;;;;;;14.03;8.00;;;;;;;31.08;68.24;100674.50;4956124;28;70235;-35
2022/07/20 02:07:12;;;;;;;10.20;7.20;;;;;;;31.09;68.18;100665.34;5021543;28;66174;-36
2022/07/20 02:09:43;;;;;;;14.35;7.32;;;;;;;31.13;68.55;100657.59;5024613;28;69335;-35
2022/07/20 02:12:14;;;;;;;11.97;7.57;;;;;;;31.12;68.24;100654.06;5020640;28;65043;-35
2022/07/20 02:14:45;;;;;;;9.20;7.40;;;;;;;31.15;68.17;100650.88;4962752;28;69156;-37
2022/07/20 02:17:16;;;;;;;8.50;6.95;;;;;;;31.10;68.10;100637.19;5038152;28;66908;-36
2022/07/20 02:19:47;;;;;;;15.35;8.13;;;;;;;31.20;68.58;100649.34;5015640;28;70775;-35
2022/07/20 02:22:18;;;;;;;8.73;7.22;;;;;;;31.21;68.05;100645.63;5017115;28;65793;-34
2022/07/20 02:24:49;;;;;;;13.10;7.65;;;;;;;31.23;68.64;100651.59;4960345;28;71647;-34
2022/07/20 02:27:20;;;;;;;9.00;6.88;;;;;;;31.25;68.50;100644.91;4970785;28;65701;-34
2022/07/20 02:29:51;;;;;;;13.25;6.85;;;;;;;31.27;68.36;100644.69;4953249;28;69577;-35
2022/07/20 02:32:22;;;;;;;9.20;7.10;;;;;;;31.30;68.06;100650.47;4958188;28;65700;-34
2022/07/20 02:34:53;;;;;;;12.18;6.78;;;;;;;31.30;68.31;100644.22;4953241;28;70264;-37
2022/07/20 02:37:24;;;;;;;11.30;6.15;;;;;;;31.36;68.06;100637.91;4961272;28;66142;-34
2022/07/20 02:39:55;;;;;;;9.77;6.55;;;;;;;31.39;67.97;100640.16;4959947;28;70229;-35
2022/07/20 02:42:26;;;;;;;7.78;6.18;;;;;;;31.41;67.85;100640.78;4960015;28;65363;-36
2022/07/20 02:44:57;;;;;;;7.18;6.20;;;;;;;31.44;68.03;100632.19;5024530;28;69319;-35
2022/07/20 02:47:28;;;;;;;10.95;6.53;;;;;;;31.31;68.21;100606.03;4959712;28;66888;-37
2022/07/20 02:50:00;;;;;;;8.00;6.45;;;;;;;31.51;68.18;100626.66;4973317;28;70495;-35
2022/07/20 02:52:31;;;;;;;9.82;6.35;;;;;;;31.51;67.87;100627.50;4959470;28;65820;-35
2022/07/20 02:55:03;;;;;;;10.07;6.50;;;;;;;31.43;67.60;100608.03;4951070;28;70027;-36
2022/07/20 02:57:34;;;;;;;7.00;6.32;;;;;;;31.51;67.69;100607.69;4956615;28;66064;-36
2022/07/20 03:00:07;;;;;;;6.72;6.00;;;;;;;31.48;68.16;100598.16;5015655;28;70141;-37
2022/07/20 03:02:38;;;;;;;9.00;5.93;;;;;;;31.47;67.70;100588.34;4955590;28;65606;-35
2022/07/20 03:05:09;;;;;;;8.68;5.82;;;;;;;31.54;67.58;100593.69;4958616;28;71518;-35
2022/07/20 03:07:40;;;;;;;7.18;5.55;;;;;;;31.64;67.54;100598.53;4960512;28;65777;-35
2022/07/20 03:10:12;;;;;;;6.68;5.88;;;;;;;31.64;67.69;100598.53;4957241;28;70102;-36
2022/07/20 03:12:43;;;;;;;9.20;6.00;;;;;;;31.65;67.61;100595.59;4960440;28;67220;-34
2022/07/20 03:15:14;;;;;;;8.95;6.03;;;;;;;31.62;67.65;100582.47;4955275;28;71622;-34
2022/07/20 03:17:50;;;;;;;6.70;6.03;;;;;;;31.25;67.56;100520.25;4953115;28;65933;-35
2022/07/20 03:20:23;;;;;;;8.43;5.95;;;;;;;31.72;67.73;100595.47;5026354;28;69574;-34
2022/07/20 03:22:56;;;;;;;5.93;5.32;;;;;;;31.50;67.71;100547.22;4958169;28;66379;-34
2022/07/20 03:25:28;;;;;;;7.85;6.05;;;;;;;31.76;67.40;100591.22;5034528;28;70002;-35
2022/07/20 03:27:59;;;;;;;6.30;5.03;;;;;;;31.77;67.54;100587.47;4966884;28;65787;-35
2022/07/20 03:30:30;;;;;;;8.40;6.10;;;;;;;31.77;67.44;100590.19;4959508;28;70276;-35
2022/07/20 03:33:01;;;;;;;6.43;5.80;;;;;;;31.76;67.67;100574.97;4960390;28;65755;-35
2022/07/20 03:35:33;;;;;;;7.40;6.73;;;;;;;31.78;67.98;100579.09;4958694;28;69697;-35
2022/07/20 03:38:03;;;;;;;8.25;7.20;;;;;;;31.76;67.47;100555.97;4954933;28;66562;-35
2022/07/20 03:40:35;;;;;;;9.18;7.40;;;;;;;31.82;67.75;100565.91;4955254;28;69947;-35
2022/07/20 03:43:06;;;;;;;11.70;7.13;;;;;;;31.82;67.54;100569.44;4960786;28;66253;-35
2022/07/20 03:45:37;;;;;;;9.65;6.72;;;;;;;31.76;67.65;100564.97;4959799;28;69787;-35
2022/07/20 03:48:09;;;;;;;8.03;5.97;;;;;;;31.83;67.48;100571.09;4958590;28;65873;-35
2022/07/20 03:50:39;;;;;;;;;;;;;;;31.53;68.96;100582.00;5034112;28;69218;-35
2022/07/20 03:53:11;;;;;;;6.57;5.43;;;;;;;31.82;67.98;100576.75;4962696;28;65416;-35
2022/07/20 03:55:42;;;;;;;7.75;5.68;;;;;;;31.85;67.98;100595.28;4969761;28;70089;-34
2022/07/20 03:58:13;;;;;;;6.65;5.57;;;;;;;31.81;67.40;100572.38;5019213;28;67444;-35
2022/07/20 04:00:43;;;;;;;6.03;5.20;;;;;;;31.87;67.46;100573.31;4962970;28;70282;-36
2022/07/20 04:03:14;;;;;;;7.97;5.47;;;;;;;31.86;67.70;100561.66;4952033;28;65367;-36
2022/07/20 04:05:45;;;;;;;8.00;5.20;;;;;;;31.84;67.67;100555.63;4979369;28;69640;-37
2022/07/20 04:08:16;;;;;;;6.18;4.90;;;;;;;31.81;67.65;100558.81;4965248;28;66079;-37
2022/07/20 04:10:47;;;;;;;5.93;5.38;;;;;;;31.85;67.62;100584.44;4970007;28;71305;-35
2022/07/20 04:13:18;;;;;;;6.70;5.33;;;;;;;31.85;67.91;100586.31;4952465;28;67074;-35
2022/07/20 04:15:49;;;;;;;6.55;5.35;;;;;;;31.87;67.79;100581.47;5012903;28;68951;-35
2022/07/20 04:18:20;;;;;;;8.30;5.63;;;;;;;31.86;67.46;100575.22;4959393;28;66254;-35
2022/07/20 04:20:51;;;;;;;10.80;5.78;;;;;;;31.77;67.45;100560.34;4959282;28;70781;-36
2022/07/20 04:23:22;;;;;;;9.27;6.10;;;;;;;31.85;67.62;100568.16;4956228;28;66569;-36
2022/07/20 04:25:53;;;;;;;7.07;5.90;;;;;;;31.87;67.68;100587.72;4957171;28;69222;-35
2022/07/20 04:28:24;;;;;;;10.27;7.05;;;;;;;31.88;67.94;100575.81;4973483;28;67556;-35
2022/07/20 04:30:55;;;;;;;8.93;7.07;;;;;;;31.86;67.77;100567.09;4963084;28;71340;-35
2022/07/20 04:33:26;;;;;;;8.50;6.70;;;;;;;31.87;67.69;100568.72;4955963;28;66572;-35
2022/07/20 04:35:57;;;;;;;9.13;6.97;;;;;;;31.89;68.08;100580.16;4951924;28;69786;-34
2022/07/20 04:38:28;;;;;;;8.82;7.72;;;;;;;31.82;67.70;100580.28;4957542;28;65190;-35
2022/07/20 04:40:59;;;;;;;8.82;6.88;;;;;;;31.88;68.21;100602.94;4958973;28;70248;-36
2022/07/20 04:43:30;;;;;;;14.27;7.63;;;;;;;31.87;68.18;100606.69;5023961;28;66150;-35
2022/07/20 04:46:01;;;;;;;10.45;7.50;;;;;;;31.88;68.21;100600.22;4956639;28;69640;-36
2022/07/20 04:48:32;;;;;;;7.93;7.15;;;;;;;31.84;67.84;100609.88;4958940;28;65361;-37
2022/07/20 04:51:03;;;;;;;7.65;6.80;;;;;;;31.79;67.97;100601.66;4957799;28;69914;-36
2022/07/20 04:53:34;;;;;;;6.70;6.13;;;;;;;31.72;68.28;100606.34;4957335;28;66301;-38
2022/07/20 04:56:05;;;;;;;9.70;6.30;;;;;;;31.75;68.63;100627.56;4958554;28;69506;-37
2022/07/20 04:58:36;;;;;;;5.60;5.05;;;;;;;31.77;68.51;100630.88;4957850;28;66274;-39
2022/07/20 05:01:07;;;;;;;13.13;5.82;;;;;;;31.74;68.19;100615.06;5023679;28;69599;-36
2022/07/20 05:03:39;;;;;;;5.93;5.07;;;;;;;31.63;68.52;100602.31;4960448;28;66578;-37
2022/07/20 05:06:10;;;;;;;6.63;5.47;;;;;;;31.66;68.38;100586.41;5025250;28;69628;-37
2022/07/20 05:08:42;;;;;;;5.53;5.03;;;;;;;31.71;68.66;100597.38;4956714;28;65273;-37
2022/07/20 05:11:13;;;;;;;8.90;5.15;;;;;;;31.69;68.40;100587.81;4958926;28;70418;-36
2022/07/20 05:13:44;;;;;;;9.02;6.15;;;;;;;31.46;68.03;100543.34;4959422;28;66859;-36
2022/07/20 05:16:15;;;;;;;6.80;6.18;;;;;;;31.69;68.25;100579.69;4958648;28;69655;-37
2022/07/20 05:18:46;;;;;;;9.67;6.60;;;;;;;31.67;68.40;100576.38;4957365;28;66305;-36
2022/07/20 05:21:18;;;;;;;10.45;7.43;;;;;;;31.65;68.28;100571.19;4959327;28;69978;-36
2022/07/20 05:23:50;;;;;;;8.25;7.47;;;;;;;31.70;68.02;100589.47;4957145;28;65419;-37
2022/07/20 05:26:21;;;;;;;10.35;7.10;;;;;;;31.69;68.58;100595.94;4957674;28;70188;-36
2022/07/20 05:28:52;;;;;;;6.95;6.32;;;;;;;31.69;68.09;100595.94;5016382;28;65912;-37
2022/07/20 05:31:23;;;;;;;7.03;6.25;;;;;;;31.70;68.66;100603.03;4963615;28;69445;-35
2022/07/20 05:33:54;;;;;;;6.70;6.03;;;;;;;31.67;68.56;100598.88;5012290;28;65941;-38
2022/07/20 05:36:26;;;;;;;7.47;5.60;;;;;;;31.69;68.42;100601.38;4956045;28;70327;-37
2022/07/20 05:38:57;;;;;;;6.93;5.43;;;;;;;31.64;68.50;100599.34;4950986;28;66053;-36
2022/07/20 05:41:29;;;;;;;5.90;5.20;;;;;;;31.65;68.77;100611.00;4957069;28;68866;-36
2022/07/20 05:44:00;;;;;;;5.55;5.00;;;;;;;31.58;69.21;100611.94;4958673;28;67055;-36
2022/07/20 05:46:31;;;;;;;6.20;4.35;;;;;;;31.58;68.81;100614.66;4958581;28;70718;-36
2022/07/20 05:49:02;;;;;;;4.83;4.37;;;;;;;31.61;68.90;100616.09;4958715;28;66288;-35
2022/07/20 05:51:35;;;;;;;6.63;4.55;;;;;;;31.57;69.32;100606.78;4956162;28;69642;-36
2022/07/20 05:54:06;;;;;;;6.28;4.05;;;;;;;31.60;68.94;100614.44;4957061;28;65725;-35
2022/07/20 05:56:37;;;;;;;3.88;3.53;;;;;;;31.58;69.17;100617.38;4959383;28;70364;-37
2022/07/20 05:59:08;;;;;;;4.30;3.90;;;;;;;31.49;69.56;100591.66;4958545;28;66107;-36
2022/07/20 06:01:43;;;;;;;4.37;3.97;;;;;;;31.55;69.21;100600.75;4958504;28;69671;-36
2022/07/20 06:04:15;;;;;;;3.50;3.20;;;;;;;31.54;69.51;100602.66;4957823;28;65333;-35
2022/07/20 06:06:46;;;;;;;3.60;3.30;;;;;;;31.51;69.28;100594.97;4943753;28;69779;-36
2022/07/20 06:09:16;;;;;;;3.10;2.80;;;;;;;31.52;69.70;100607.47;5013233;28;65881;-35
2022/07/20 06:11:50;;;;;;;3.28;2.97;;;;;;;31.47;69.56;100610.03;4958688;28;71048;-37
2022/07/20 06:14:21;;;;;;;2.97;2.67;;;;;;;31.50;69.76;100620.41;4958182;28;65412;-36
2022/07/20 06:16:52;;;;;;;3.13;2.90;;;;;;;31.47;69.48;100623.59;4945860;28;70605;-35
2022/07/20 06:19:23;;;;;;;2.75;2.55;;;;;;;31.40;69.59;100620.16;4960063;28;65911;-37
2022/07/20 06:21:54;;;;;;;2.88;2.35;;;;;;;31.44;69.91;100629.47;4959468;28;69596;-37
2022/07/20 06:24:25;;;;;;;2.42;2.08;;;;;;;31.33;69.69;100609.38;4957047;28;65608;-37
2022/07/20 06:26:56;;;;;;;2.75;2.35;;;;;;;31.42;70.21;100623.44;4954167;28;69269;-37
2022/07/20 06:29:27;;;;;;;2.80;2.40;;;;;;;31.17;70.02;100580.19;4957819;28;66405;-35
2022/07/20 06:31:58;;;;;;;2.53;2.30;;;;;;;31.39;70.01;100615.78;4954527;28;69167;-36
2022/07/20 06:34:45;;;;;;;1.95;1.75;;;;;;;31.31;70.32;100599.81;4967622;28;65283;-36
2022/07/20 06:37:16;;;;;;;2.50;2.17;;;;;;;31.35;70.17;100606.44;4971055;28;69816;-37
2022/07/20 06:39:48;;;;;;;2.28;1.63;;;;;;;31.30;70.08;100606.28;5021855;28;66450;-35
2022/07/20 06:42:22;;;;;;;2.10;1.90;;;;;;;31.34;70.42;100615.59;5021392;28;70247;-37
2022/07/20 06:44:53;;;;;;;3.00;1.88;;;;;;;31.34;70.46;100626.44;5015334;28;65636;-37
2022/07/20 06:47:24;;;;;;;3.67;1.60;;;;;;;31.33;70.12;100624.81;4961217;28;69923;-37
2022/07/20 06:49:55;;;;;;;2.53;1.50;;;;;;;31.32;70.09;100620.44;5015834;28;64916;-36
2022/07/20 06:52:32;;;;;;;3.15;1.58;;;;;;;31.30;70.33;100614.41;4963509;28;70882;-37
2022/07/20 06:55:06;;;;;;;1.50;1.27;;;;;;;31.29;69.98;100604.66;4956766;28;66529;-38
2022/07/20 06:57:37;;;;;;;2.08;1.65;;;;;;;31.28;70.22;100600.28;5019109;28;69915;-36
2022/07/20 07:00:09;;;;;;;3.72;1.67;;;;;;;31.27;70.49;100598.63;4967460;28;66324;-37
2022/07/20 07:02:45;;;;;;;1.90;1.70;;;;;;;31.25;70.70;100598.03;4959012;28;70570;-38
2022/07/20 07:05:16;;;;;;;2.47;2.20;;;;;;;31.24;70.21;100588.25;4957192;28;67352;-37
2022/07/20 07:07:48;;;;;;;3.60;1.90;;;;;;;31.17;70.54;100578.34;4969131;28;68718;-35
2022/07/20 07:10:19;;;;;;;1.80;1.38;;;;;;;31.22;70.80;100582.22;4971140;28;64843;-36
2022/07/20 07:12:51;;;;;;;2.80;1.70;;;;;;;31.21;70.43;100583.28;4959953;28;69185;-36
2022/07/20 07:15:22;;;;;;;3.42;1.88;;;;;;;31.13;70.79;100565.47;4977504;28;66357;-36
2022/07/20 07:17:54;;;;;;;2.00;1.52;;;;;;;31.14;70.69;100567.94;4959398;28;70120;-35
2022/07/20 07:20:25;;;;;;;2.25;2.00;;;;;;;30.69;70.98;100499.75;4967343;28;67632;-36
2022/07/20 07:22:56;;;;;;;2.27;1.67;;;;;;;31.14;71.12;100575.22;5025022;28;69858;-35
2022/07/20 07:25:28;;;;;;;;;;;;;;;30.84;72.86;100588.75;4957147;28;66313;-34
2022/07/20 07:27:59;;;;;;;4.97;1.52;;;;;;;31.10;70.94;100577.59;4961127;28;70069;-38
2022/07/20 07:30:30;;;;;;;2.77;1.83;;;;;;;31.11;71.33;100579.22;4961238;28;66127;-35
2022/07/20 07:33:01;;;;;;;2.60;1.60;;;;;;;31.12;70.90;100583.59;4969521;28;70091;-36
2022/07/20 07:35:32;;;;;;;2.30;1.50;;;;;;;31.11;70.93;100578.41;4959459;28;66084;-36
2022/07/20 07:38:03;;;;;;;1.98;1.38;;;;;;;31.11;70.72;100573.81;4971330;28;71027;-35
2022/07/20 07:40:34;;;;;;;2.60;2.00;;;;;;;31.10;70.71;100572.16;4970591;28;65299;-34
2022/07/20 07:43:05;;;;;;;1.90;1.55;;;;;;;31.08;71.30;100568.84;5021502;28;71109;-35
2022/07/20 07:45:36;;;;;;;2.90;1.60;;;;;;;31.06;71.36;100570.94;4971763;28;67945;-36
2022/07/20 07:48:10;;;;;;;2.17;1.70;;;;;;;30.98;70.87;100551.50;4956567;28;70188;-34
2022/07/20 07:50:43;;;;;;;2.22;1.48;;;;;;;31.09;70.75;100565.09;4959805;28;65976;-36
2022/07/20 07:53:14;;;;;;;4.72;2.17;;;;;;;31.07;70.84;100556.38;4956442;28;70114;-34
2022/07/20 07:55:48;;;;;;;3.53;1.58;;;;;;;31.07;71.01;100550.13;4958016;28;65926;-34
2022/07/20 07:58:19;;;;;;;1.48;1.17;;;;;;;31.05;70.85;100547.66;4960140;28;70505;-35
2022/07/20 08:00:49;;;;;;;3.60;1.85;;;;;;;31.05;71.41;100555.78;4950564;28;66809;-35
2022/07/20 08:03:23;;;;;;;1.95;1.50;;;;;;;30.97;71.25;100545.25;5019750;28;43717;-35
2022/07/20 08:06:01;;;;;;;2.72;2.13;;;;;;;31.04;71.19;100554.13;4953714;28;66125;-35
2022/07/20 08:08:32;;;;;;;4.90;1.73;;;;;;;31.01;70.86;100551.88;4957246;28;69859;-34
2022/07/20 08:11:04;;;;;;;5.32;4.13;;;;;;;31.03;71.23;100549.75;4959523;28;66436;-34
2022/07/20 08:13:35;;;;;;;6.63;5.82;;;;;;;30.84;71.24;100518.34;4949840;28;70252;-35
2022/07/20 08:16:07;;;;;;;10.43;9.25;;;;;;;30.98;71.40;100546.91;4998262;28;65905;-36
2022/07/20 08:18:38;;;;;;;12.10;10.80;;;;;;;30.96;71.60;100540.09;4958190;28;70137;-35
2022/07/20 08:21:09;;;;;;;12.65;10.90;;;;;;;30.99;71.49;100537.72;4952602;28;65533;-35
2022/07/20 08:23:40;;;;;;;13.07;10.67;;;;;;;30.98;71.36;100546.91;4958013;28;69966;-36
2022/07/20 08:26:11;;;;;;;11.52;10.43;;;;;;;30.99;71.39;100537.72;4958123;28;65463;-37
2022/07/20 08:28:42;;;;;;;10.87;9.77;;;;;;;30.98;71.51;100537.94;4952480;28;69821;-36
2022/07/20 08:31:13;;;;;;;10.77;9.68;;;;;;;30.98;71.37;100538.81;4957737;28;65254;-36
2022/07/20 08:33:44;;;;;;;10.60;9.53;;;;;;;30.95;71.47;100541.94;4960088;28;68973;-35
2022/07/20 08:36:15;;;;;;;11.00;10.00;;;;;;;30.91;70.93;100528.03;4959683;28;65246;-35
2022/07/20 08:38:46;;;;;;;9.70;8.90;;;;;;;30.94;70.93;100532.16;5025690;28;70132;-36
2022/07/20 08:41:18;;;;;;;9.18;8.40;;;;;;;30.87;71.25;100526.00;4960125;28;67420;-35
2022/07/20 08:43:49;;;;;;;7.87;7.27;;;;;;;30.93;71.23;100534.06;4952943;28;69174;-35
2022/07/20 08:46:23;;;;;;;8.52;7.65;;;;;;;30.86;70.85;100521.66;4958100;28;65578;-34
2022/07/20 08:48:55;;;;;;;8.57;7.85;;;;;;;30.89;71.27;100524.72;4952225;28;70168;-35
2022/07/20 08:51:26;;;;;;;7.75;7.15;;;;;;;30.90;70.92;100528.28;4953129;28;65471;-35
2022/07/20 08:53:57;;;;;;;7.22;6.55;;;;;;;30.91;71.05;100524.50;4959560;28;69806;-35
2022/07/20 08:56:28;;;;;;;6.80;6.20;;;;;;;30.88;70.92;100506.00;4957485;28;67826;-35
2022/07/20 08:58:59;;;;;;;7.50;5.90;;;;;;;30.72;70.93;100493.88;5023069;28;69519;-35
2022/07/20 09:01:30;;;;;;;6.78;5.30;;;;;;;30.90;70.81;100518.28;4955791;28;66199;-35
2022/07/20 09:04:10;;;;;;;5.93;5.32;;;;;;;30.47;71.38;100445.28;4958739;28;70593;-36
2022/07/20 09:06:51;;;;;;;5.43;5.03;;;;;;;30.87;71.00;100517.88;4957756;28;65374;-38
2022/07/20 09:09:22;;;;;;;6.25;5.70;;;;;;;30.86;71.19;100510.81;4954832;28;69991;-36
2022/07/20 09:11:54;;;;;;;6.18;5.50;;;;;;;30.88;70.78;100511.44;4958262;28;66156;-37
2022/07/20 09:14:48;;;;;;;5.67;5.13;;;;;;;30.78;71.43;100508.41;4958968;28;70053;-36
2022/07/20 09:17:21;;;;;;;5.93;5.35;;;;;;;30.46;71.15;100440.94;4950376;28;65856;-36
2022/07/20 09:19:57;;;;;;;5.30;4.90;;;;;;;30.90;71.01;100506.63;4958524;28;70292;-36
2022/07/20 09:22:34;;;;;;;4.90;4.50;;;;;;;30.88;70.80;100519.56;5015747;28;65876;-35
2022/07/20 09:25:06;;;;;;;5.50;5.00;;;;;;;30.88;71.17;100516.84;5024602;28;69983;-36
2022/07/20 09:27:39;;;;;;;4.95;4.50;;;;;;;30.87;70.75;100517.88;4958173;28;66120;-35
2022/07/20 09:30:15;;;;;;;5.70;5.20;;;;;;;30.84;71.38;100519.19;4958727;28;69918;-35
2022/07/20 09:32:55;;;;;;;4.97;4.68;;;;;;;30.41;71.52;100447.03;4956608;28;65224;-34
2022/07/20 09:35:30;;;;;;;6.50;4.80;;;;;;;30.86;71.16;100527.06;4944448;28;69362;-35
2022/07/20 09:38:07;;;;;;;5.38;4.95;;;;;;;30.73;71.25;100500.97;4958611;28;65624;-34
2022/07/20 09:40:44;;;;;;;4.90;4.50;;;;;;;30.39;71.35;100456.41;4943438;28;70216;-35
2022/07/20 09:43:31;;;;;;;4.90;4.50;;;;;;;30.76;71.39;100526.75;4954068;28;65534;-36
2022/07/20 09:46:14;;;;;;;5.50;5.05;;;;;;;30.78;71.75;100530.06;4958896;28;69595;-36
2022/07/20 09:48:47;;;;;;;5.80;5.10;;;;;;;30.44;71.02;100470.09;4951901;28;66947;-35
2022/07/20 09:51:24;;;;;;;5.53;5.10;;;;;;;30.79;71.50;100526.31;5016570;28;69784;-36
2022/07/20 09:54:15;;;;;;;5.20;4.80;;;;;;;30.78;71.54;100530.88;4956124;28;65456;-36
2022/07/20 09:56:51;;;;;;;4.57;4.28;;;;;;;30.37;71.41;100458.50;4957796;28;70353;-37
2022/07/20 09:59:22;;;;;;;5.20;4.43;;;;;;;30.80;71.15;100528.00;4947952;28;65738;-36
2022/07/20 10:01:55;;;;;;;5.25;4.85;;;;;;;30.79;71.65;100537.16;4954729;28;70167;-36
2022/07/20 10:04:26;;;;;;;;;;;;;;;30.44;72.80;100532.34;4952707;28;66390;-37
2022/07/20 10:06:57;;;;;;;4.90;4.50;;;;;;;30.73;71.84;100528.88;4951975;28;70316;-35
2022/07/20 10:09:31;;;;;;;5.90;5.30;;;;;;;30.76;71.68;100527.59;4955988;28;66845;-35
2022/07/20 10:12:02;;;;;;;4.95;4.60;;;;;;;30.76;71.48;100521.31;4947276;28;70173;-36
2022/07/20 10:14:35;;;;;;;5.28;4.60;;;;;;;30.75;71.34;100525.09;4958099;28;65125;-37
2022/07/20 10:17:06;;;;;;;4.55;4.20;;;;;;;30.75;71.64;100520.50;4955278;28;70215;-36
2022/07/20 10:19:48;;;;;;;5.57;5.07;;;;;;;30.70;71.73;100526.63;4958058;28;65837;-35
2022/07/20 10:22:19;;;;;;;5.22;4.78;;;;;;;30.72;71.76;100527.19;4944579;28;69950;-36
2022/07/20 10:25:29;;;;;;;6.20;5.60;;;;;;;30.31;73.35;100513.53;4957072;28;66170;-35
2022/07/20 10:28:23;;;;;;;6.05;5.65;;;;;;;30.29;73.85;100527.31;4955858;28;69370;-34
2022/07/20 10:30:57;;;;;;;6.22;5.63;;;;;;;29.89;74.31;100462.75;4976036;28;66318;-37
2022/07/20 10:33:28;;;;;;;8.25;6.15;;;;;;;30.26;74.54;100533.19;4968210;28;69983;-36
2022/07/20 10:39:44;;;;;;;9.43;6.00;;;;;;;30.09;75.50;100532.91;4959629;28;69289;-36
2022/07/20 10:42:30;;;;;;;6.68;5.38;;;;;;;30.10;75.62;100550.78;4982893;28;65724;-38
2022/07/20 10:45:25;;;;;;;9.30;7.00;;;;;;;30.06;76.27;100550.41;4955176;28;69766;-37
2022/07/20 10:48:13;;;;;;;7.80;6.13;;;;;;;29.67;76.65;100478.59;4959226;28;67008;-36
2022/07/20 10:50:50;;;;;;;11.85;7.70;;;;;;;30.12;76.91;100559.50;4958717;28;70526;-37
2022/07/20 10:53:24;;;;;;;9.77;6.20;;;;;;;30.12;76.68;100555.97;4958676;28;66150;-37
2022/07/20 10:55:56;;;;;;;9.85;6.72;;;;;;;30.08;76.78;100562.88;4961553;28;70808;-37
2022/07/20 10:58:33;;;;;;;6.28;5.75;;;;;;;29.68;75.72;100499.16;5024800;28;66323;-39
2022/07/20 11:01:07;;;;;;;5.38;4.97;;;;;;;29.69;75.58;100490.00;4959149;28;69020;-37
2022/07/20 11:03:42;;;;;;;6.18;5.35;;;;;;;30.24;74.75;100579.38;5026600;28;66072;-37
2022/07/20 11:06:19;;;;;;;5.82;5.43;;;;;;;29.90;74.40;100513.09;4959958;28;70246;-36
2022/07/20 11:09:00;;;;;;;5.88;5.05;;;;;;;29.97;74.47;100523.84;4958670;28;66541;-39
2022/07/20 11:11:37;;;;;;;5.80;5.30;;;;;;;30.40;74.25;100593.41;4960380;28;70344;-40
2022/07/20 11:14:10;;;;;;;5.53;5.13;;;;;;;30.45;74.12;100590.81;4950177;28;66669;-36
2022/07/20 11:16:41;;;;;;;6.50;5.00;;;;;;;30.49;73.65;100600.16;4958321;28;70023;-37
2022/07/20 11:19:13;;;;;;;6.00;5.45;;;;;;;30.50;74.23;100604.50;4952397;28;66086;-36
2022/07/20 11:21:44;;;;;;;5.25;4.85;;;;;;;30.47;73.96;100604.97;5010085;28;68620;-36
2022/07/20 11:24:27;;;;;;;5.78;5.25;;;;;;;30.52;73.85;100626.78;4959925;28;66048;-36
2022/07/20 11:27:14;;;;;;;7.38;5.40;;;;;;;30.05;73.71;100551.44;4955052;28;70054;-36
2022/07/20 11:29:49;;;;;;;5.85;5.35;;;;;;;30.60;73.51;100631.91;4956828;28;65243;-37
2022/07/20 11:32:21;;;;;;;6.20;5.75;;;;;;;30.53;73.02;100625.72;5018745;28;69209;-36
2022/07/20 11:34:53;;;;;;;7.20;5.50;;;;;;;30.61;73.26;100635.44;4958594;28;65102;-36
2022/07/20 11:37:25;;;;;;;6.25;5.75;;;;;;;30.63;73.51;100642.28;4960267;28;69716;-35
2022/07/20 11:39:56;;;;;;;7.28;5.38;;;;;;;30.64;73.60;100652.03;4960136;28;67619;-37
2022/07/20 11:42:28;;;;;;;6.85;5.93;;;;;;;30.66;73.29;100651.84;4960302;28;70466;-36
2022/07/20 11:45:02;;;;;;;;;;;;;;;30.30;74.71;100650.72;4961949;28;66348;-35
2022/07/20 11:47:33;;;;;;;6.22;5.60;;;;;;;30.60;73.70;100650.03;4959287;28;70730;-35
2022/07/20 11:50:06;;;;;;;6.15;5.75;;;;;;;30.52;73.36;100634.91;4959302;28;65985;-37
2022/07/20 11:52:42;;;;;;;6.28;5.78;;;;;;;30.36;72.85;100611.13;4959505;28;70649;-36
2022/07/20 11:55:13;;;;;;;6.38;5.93;;;;;;;30.65;73.39;100661.84;4958979;28;66542;-35